Time;durP1;ratioP1;P1;durP2;ratioP2;P2;SDS_P1;SDS_P2;PMS_P1;PMS_P2;Temp;Humidity;BMP_temperature;BMP_pressure;BME280_temperature;BME280_humidity;BME280_pressure;Samples;Min_cycle;Max_cycle;Signal;HPM_P1;HPM_P2
2023/04/27 00:00:47;;;;;;;;;;;19.30;40.40;;;;;;4992102;28;19914;-53
2023/04/27 00:03:12;;;;;;;;;;;19.30;40.40;;;;;;4988352;28;20005;-53
2023/04/27 00:05:38;;;;;;;;;;;19.30;40.40;;;;;;4990888;28;20309;-53
2023/04/27 00:08:04;;;;;;;;;;;19.30;40.30;;;;;;4987328;28;19914;-53
2023/04/27 00:10:29;;;;;;;;;;;19.20;40.30;;;;;;4997944;28;19913;-53
2023/04/27 00:12:55;;;;;;;;;;;19.20;40.30;;;;;;4988421;28;19922;-53
2023/04/27 00:15:20;;;;;;;;;;;19.20;40.20;;;;;;4995967;28;19918;-52
2023/04/27 00:17:47;;;;;;;;;;;19.20;40.50;;;;;;4988757;28;20420;-52
2023/04/27 00:20:12;;;;;;;;;;;19.20;40.40;;;;;;4995388;28;19951;-53
2023/04/27 00:22:38;;;;;;;;;;;19.20;40.50;;;;;;4988855;28;20338;-53
2023/04/27 00:25:04;;;;;;;;;;;19.10;40.60;;;;;;4990807;28;19941;-53
2023/04/27 00:27:29;;;;;;;;;;;19.10;40.60;;;;;;4985864;28;20034;-52
2023/04/27 00:29:55;;;;;;;;;;;19.10;40.50;;;;;;4988787;28;20010;-53
2023/04/27 00:32:20;;;;;;;;;;;19.10;40.60;;;;;;4988740;28;20367;-53
2023/04/27 00:34:46;;;;;;;;;;;19.10;40.80;;;;;;4988135;28;19928;-53
2023/04/27 00:37:11;;;;;;;;;;;19.10;40.90;;;;;;4989453;28;20530;-52
2023/04/27 00:39:37;;;;;;;;;;;19.10;40.70;;;;;;4989158;28;20757;-53
2023/04/27 00:42:02;;;;;;;;;;;19.00;40.50;;;;;;4992526;28;19914;-53
2023/04/27 00:44:28;;;;;;;;;;;19.00;40.70;;;;;;4988772;28;19937;-52
2023/04/27 00:46:53;;;;;;;;;;;19.00;40.80;;;;;;4991945;28;19914;-52
2023/04/27 00:49:19;;;;;;;;;;;19.00;40.80;;;;;;4989932;28;20366;-53
2023/04/27 00:51:44;;;;;;;;;;;19.00;40.60;;;;;;5022437;28;20368;-53
2023/04/27 00:54:10;;;;;;;;;;;19.00;40.70;;;;;;4990200;28;20362;-52
2023/04/27 00:56:35;;;;;;;;;;;19.00;40.90;;;;;;4986967;28;20076;-52
2023/04/27 00:59:01;;;;;;;;;;;18.90;40.80;;;;;;4994963;28;20329;-53
2023/04/27 01:01:26;;;;;;;;;;;18.90;40.90;;;;;;4989385;28;19922;-52
2023/04/27 01:03:52;;;;;;;;;;;18.90;40.90;;;;;;5017102;28;19914;-52
2023/04/27 01:06:17;;;;;;;;;;;18.90;40.80;;;;;;4991884;28;19914;-52
2023/04/27 01:08:43;;;;;;;;;;;18.90;40.90;;;;;;4987362;28;19921;-52
2023/04/27 01:11:08;;;;;;;;;;;18.90;41.10;;;;;;4991717;28;19965;-52
2023/04/27 01:13:34;;;;;;;;;;;18.90;40.90;;;;;;4986643;28;20384;-53
2023/04/27 01:15:59;;;;;;;;;;;19.00;41.00;;;;;;4990196;28;20537;-52
2023/04/27 01:18:25;;;;;;;;;;;19.20;41.20;;;;;;4989500;28;20416;-52
2023/04/27 01:20:50;;;;;;;;;;;19.60;40.60;;;;;;4996700;28;19926;-52
2023/04/27 01:23:16;;;;;;;;;;;20.00;40.10;;;;;;4985099;28;19992;-52
2023/04/27 01:25:41;;;;;;;;;;;20.20;39.60;;;;;;4987759;28;19984;-53
2023/04/27 01:28:07;;;;;;;;;;;20.60;39.10;;;;;;4988821;28;19913;-53
2023/04/27 01:30:32;;;;;;;;;;;21.00;38.50;;;;;;4987777;28;19952;-53
2023/04/27 01:32:57;;;;;;;;;;;21.30;37.90;;;;;;4998748;28;19917;-52
2023/04/27 01:35:23;;;;;;;;;;;21.30;37.70;;;;;;4986829;28;19913;-53
2023/04/27 01:37:48;;;;;;;;;;;21.30;37.80;;;;;;4986643;28;19929;-53
2023/04/27 01:40:14;;;;;;;;;;;21.20;37.90;;;;;;5020368;28;19921;-53
2023/04/27 01:42:39;;;;;;;;;;;21.20;37.90;;;;;;4986123;28;20004;-52
2023/04/27 01:45:05;;;;;;;;;;;21.40;37.70;;;;;;4991422;28;20320;-52
2023/04/27 01:47:30;;;;;;;;;;;21.70;37.20;;;;;;4989013;28;20499;-53
2023/04/27 01:49:56;;;;;;;;;;;22.00;37.40;;;;;;4990072;28;19921;-53
2023/04/27 01:52:21;;;;;;;;;;;22.30;36.20;;;;;;4986120;28;19918;-52
2023/04/27 01:54:47;;;;;;;;;;;22.40;35.90;;;;;;4995038;28;20786;-53
2023/04/27 01:57:13;;;;;;;;;;;22.40;35.80;;;;;;4989148;28;19932;-53
2023/04/27 01:59:38;;;;;;;;;;;22.40;35.90;;;;;;4987471;28;19943;-53
2023/04/27 02:02:04;;;;;;;;;;;22.20;36.20;;;;;;4989588;28;20432;-52
2023/04/27 02:04:29;;;;;;;;;;;22.00;36.50;;;;;;4989256;28;19925;-53
2023/04/27 02:06:55;;;;;;;;;;;21.80;36.70;;;;;;4987543;28;19921;-53
2023/04/27 02:09:20;;;;;;;;;;;21.60;37.10;;;;;;5016265;28;20409;-53
2023/04/27 02:11:46;;;;;;;;;;;21.50;37.40;;;;;;4983835;28;20299;-54
2023/04/27 02:14:11;;;;;;;;;;;21.30;37.80;;;;;;4992595;28;20004;-52
2023/04/27 02:16:37;;;;;;;;;;;21.10;38.00;;;;;;4985905;28;19914;-53
2023/04/27 02:19:03;;;;;;;;;;;20.90;38.20;;;;;;4989034;28;19921;-52
2023/04/27 02:21:29;;;;;;;;;;;20.80;38.40;;;;;;4989721;28;20397;-53
2023/04/27 02:23:54;;;;;;;;;;;20.70;38.70;;;;;;5000332;28;19969;-53
2023/04/27 02:26:20;;;;;;;;;;;20.60;38.90;;;;;;4986908;28;19921;-53
2023/04/27 02:28:46;;;;;;;;;;;20.50;39.00;;;;;;4987180;28;19913;-53
2023/04/27 02:31:12;;;;;;;;;;;20.40;39.10;;;;;;4986450;28;19921;-52
2023/04/27 02:33:38;;;;;;;;;;;20.30;39.30;;;;;;4987941;28;19921;-52
2023/04/27 02:36:03;;;;;;;;;;;20.20;39.10;;;;;;4985235;28;20032;-52
2023/04/27 02:38:29;;;;;;;;;;;20.30;39.30;;;;;;4985149;28;19925;-53
2023/04/27 02:40:54;;;;;;;;;;;20.30;39.30;;;;;;4988350;28;19914;-52
2023/04/27 02:43:20;;;;;;;;;;;20.40;39.80;;;;;;4991814;28;19914;-52
2023/04/27 02:45:46;;;;;;;;;;;20.60;38.70;;;;;;4990680;28;19949;-52
2023/04/27 02:48:11;;;;;;;;;;;20.80;38.30;;;;;;4985500;28;19961;-52
2023/04/27 02:50:40;;;;;;;;;;;21.00;37.90;;;;;;4984297;28;19921;-53
2023/04/27 02:53:06;;;;;;;;;;;21.20;37.60;;;;;;4983835;28;20020;-53
2023/04/27 02:55:31;;;;;;;;;;;21.30;37.40;;;;;;4984942;28;20048;-53
2023/04/27 02:57:57;;;;;;;;;;;21.40;37.40;;;;;;5000855;28;19925;-53
2023/04/27 03:00:22;;;;;;;;;;;21.40;37.20;;;;;;4991832;28;19925;-52
2023/04/27 03:02:48;;;;;;;;;;;21.40;37.30;;;;;;4984486;28;19922;-52
2023/04/27 03:05:13;;;;;;;;;;;21.30;37.20;;;;;;4983101;28;20290;-52
2023/04/27 03:07:39;;;;;;;;;;;21.30;37.40;;;;;;4982541;28;20287;-53
2023/04/27 03:10:04;;;;;;;;;;;21.20;37.40;;;;;;4990437;28;20044;-53
2023/04/27 03:12:30;;;;;;;;;;;21.20;37.60;;;;;;4982059;28;19934;-53
2023/04/27 03:14:55;;;;;;;;;;;21.00;37.70;;;;;;4985682;28;19921;-53
2023/04/27 03:17:20;;;;;;;;;;;20.90;38.00;;;;;;4986421;28;19918;-53
2023/04/27 03:19:47;;;;;;;;;;;20.80;38.20;;;;;;4986460;28;19980;-52
2023/04/27 03:22:12;;;;;;;;;;;20.70;38.40;;;;;;4986675;28;20108;-53
2023/04/27 03:24:38;;;;;;;;;;;20.60;38.50;;;;;;4987431;28;20008;-52
2023/04/27 03:27:03;;;;;;;;;;;20.50;38.50;;;;;;4986899;28;19921;-52
2023/04/27 03:29:29;;;;;;;;;;;20.50;38.90;;;;;;4988463;28;19961;-52
2023/04/27 03:31:54;;;;;;;;;;;20.50;38.80;;;;;;4985048;28;19921;-52
2023/04/27 03:34:20;;;;;;;;;;;20.60;38.70;;;;;;4983131;28;19921;-53
2023/04/27 03:36:45;;;;;;;;;;;20.70;38.40;;;;;;4984627;28;20270;-53
2023/04/27 03:39:11;;;;;;;;;;;20.90;38.30;;;;;;4985918;28;19979;-52
2023/04/27 03:41:36;;;;;;;;;;;21.00;38.00;;;;;;4988851;28;20000;-52
2023/04/27 03:44:02;;;;;;;;;;;21.10;37.90;;;;;;4987239;28;19917;-52
2023/04/27 03:46:27;;;;;;;;;;;21.30;37.70;;;;;;4985872;28;19918;-52
2023/04/27 03:48:53;;;;;;;;;;;21.40;37.40;;;;;;4985228;28;20301;-52
2023/04/27 03:51:18;;;;;;;;;;;21.40;37.30;;;;;;4987489;28;19918;-52
2023/04/27 03:53:44;;;;;;;;;;;21.40;37.20;;;;;;4986208;28;19922;-53
2023/04/27 03:56:09;;;;;;;;;;;21.40;37.30;;;;;;4984517;28;19937;-52
2023/04/27 03:58:35;;;;;;;;;;;21.30;37.40;;;;;;4984895;28;20336;-53
2023/04/27 04:01:00;;;;;;;;;;;21.20;37.60;;;;;;4988516;28;20619;-52
2023/04/27 04:03:26;;;;;;;;;;;21.00;37.90;;;;;;4982771;28;19923;-53
2023/04/27 04:05:51;;;;;;;;;;;20.90;38.20;;;;;;4984578;28;19917;-53
2023/04/27 04:08:17;;;;;;;;;;;20.70;38.40;;;;;;4983518;28;20013;-53
2023/04/27 04:10:42;;;;;;;;;;;20.60;38.70;;;;;;4986426;28;19918;-53
2023/04/27 04:13:07;;;;;;;;;;;20.50;38.90;;;;;;4995133;28;19933;-53
2023/04/27 04:15:33;;;;;;;;;;;20.30;39.00;;;;;;4990623;28;19920;-53
2023/04/27 04:17:58;;;;;;;;;;;20.30;39.10;;;;;;4990398;28;20236;-53
2023/04/27 04:20:24;;;;;;;;;;;20.30;39.20;;;;;;4989736;28;19937;-53
2023/04/27 04:22:50;;;;;;;;;;;20.30;39.10;;;;;;5019508;28;19941;-52
2023/04/27 04:25:15;;;;;;;;;;;20.30;39.00;;;;;;4992085;28;19914;-52
2023/04/27 04:27:41;;;;;;;;;;;20.40;38.80;;;;;;4991923;28;20362;-53
2023/04/27 04:30:07;;;;;;;;;;;20.50;38.70;;;;;;4989504;28;19913;-53
2023/04/27 04:32:32;;;;;;;;;;;20.60;38.50;;;;;;4989177;28;20357;-52
2023/04/27 04:35:00;;;;;;;;;;;20.80;38.40;;;;;;4989630;28;20401;-52
2023/04/27 04:37:26;;;;;;;;;;;20.90;38.00;;;;;;4988743;28;19917;-53
2023/04/27 04:39:51;;;;;;;;;;;21.10;37.70;;;;;;4993184;28;19920;-53
2023/04/27 04:42:16;;;;;;;;;;;21.20;37.40;;;;;;4986921;28;19940;-53
2023/04/27 04:44:42;;;;;;;;;;;21.40;37.30;;;;;;4988499;28;20279;-53
2023/04/27 04:47:09;;;;;;;;;;;21.40;37.20;;;;;;4994790;28;20123;-53
2023/04/27 04:49:34;;;;;;;;;;;21.40;37.10;;;;;;4992895;28;20359;-53
2023/04/27 04:52:00;;;;;;;;;;;21.40;37.10;;;;;;4988597;28;19949;-53
2023/04/27 04:54:25;;;;;;;;;;;21.40;37.20;;;;;;4991644;28;19968;-53
2023/04/27 04:56:50;;;;;;;;;;;21.20;37.30;;;;;;4994843;28;19922;-53
2023/04/27 04:59:16;;;;;;;;;;;21.10;37.40;;;;;;4991204;28;19940;-53
2023/04/27 05:01:42;;;;;;;;;;;21.00;37.70;;;;;;4989753;28;19925;-52
2023/04/27 05:04:07;;;;;;;;;;;20.80;38.10;;;;;;4986447;28;19959;-53
2023/04/27 05:06:32;;;;;;;;;;;20.70;38.30;;;;;;4987290;28;19924;-52
2023/04/27 05:08:58;;;;;;;;;;;20.60;38.30;;;;;;4987064;28;19949;-53
2023/04/27 05:11:23;;;;;;;;;;;20.50;38.70;;;;;;4987777;28;19931;-53
2023/04/27 05:13:49;;;;;;;;;;;20.50;38.80;;;;;;4991685;28;19918;-53
2023/04/27 05:16:14;;;;;;;;;;;20.50;38.80;;;;;;4992313;28;19909;-52
2023/04/27 05:18:40;;;;;;;;;;;20.50;38.80;;;;;;4988145;28;19926;-53
2023/04/27 05:21:12;;;;;;;;;;;20.50;38.70;;;;;;4985884;28;19921;-53
2023/04/27 05:23:38;;;;;;;;;;;20.50;38.60;;;;;;4986496;28;19979;-53
2023/04/27 05:26:09;;;;;;;;;;;20.60;38.50;;;;;;4989910;28;19991;-53
2023/04/27 05:28:35;;;;;;;;;;;20.60;38.50;;;;;;4987778;28;19914;-53
2023/04/27 05:31:01;;;;;;;;;;;20.70;38.30;;;;;;4989792;28;20312;-53
2023/04/27 05:33:26;;;;;;;;;;;20.70;38.20;;;;;;4988340;28;19916;-52
2023/04/27 05:35:51;;;;;;;;;;;20.70;38.20;;;;;;4983408;28;23083;-52
2023/04/27 05:38:17;;;;;;;;;;;20.80;38.10;;;;;;4984859;28;20052;-53
2023/04/27 05:40:42;;;;;;;;;;;20.80;38.00;;;;;;4986844;28;19961;-52
2023/04/27 05:43:08;;;;;;;;;;;20.80;38.00;;;;;;4986045;28;19994;-53
2023/04/27 05:45:37;;;;;;;;;;;20.80;38.10;;;;;;4988509;28;19925;-53
2023/04/27 05:48:03;;;;;;;;;;;20.70;38.00;;;;;;4988347;28;19918;-53
2023/04/27 05:50:28;;;;;;;;;;;20.70;38.00;;;;;;4984186;28;19948;-53
2023/04/27 05:52:53;;;;;;;;;;;20.70;38.10;;;;;;4987021;28;19922;-53
2023/04/27 05:55:19;;;;;;;;;;;20.60;38.10;;;;;;4992563;28;19918;-53
2023/04/27 05:57:45;;;;;;;;;;;20.50;38.30;;;;;;4992224;28;19918;-53
2023/04/27 06:00:11;;;;;;;;;;;20.50;38.40;;;;;;4989564;28;19913;-53
2023/04/27 06:02:36;;;;;;;;;;;20.50;38.50;;;;;;4983083;28;20008;-53
2023/04/27 06:05:02;;;;;;;;;;;20.60;38.40;;;;;;4985397;28;19996;-56
2023/04/27 06:07:28;;;;;;;;;;;20.60;38.30;;;;;;4987668;28;19950;-52
2023/04/27 06:09:53;;;;;;;;;;;20.70;38.30;;;;;;4983933;28;19914;-53
2023/04/27 06:12:19;;;;;;;;;;;20.70;38.30;;;;;;4990841;28;20004;-52
2023/04/27 06:14:44;;;;;;;;;;;20.70;38.30;;;;;;5016754;28;20326;-52
2023/04/27 06:17:10;;;;;;;;;;;20.70;38.10;;;;;;4987226;28;19921;-52
2023/04/27 06:19:35;;;;;;;;;;;20.70;38.30;;;;;;4987664;28;19929;-53
2023/04/27 06:22:02;;;;;;;;;;;20.70;38.30;;;;;;4986317;28;19928;-53
2023/04/27 06:24:28;;;;;;;;;;;20.70;38.20;;;;;;4984828;28;20013;-53
2023/04/27 06:26:53;;;;;;;;;;;20.70;38.20;;;;;;4985403;28;20009;-53
2023/04/27 06:29:19;;;;;;;;;;;20.70;38.20;;;;;;4983050;28;19980;-53
2023/04/27 06:31:44;;;;;;;;;;;20.70;38.20;;;;;;4986434;28;19981;-52
2023/04/27 06:34:10;;;;;;;;;;;20.70;38.10;;;;;;4985569;28;20375;-52
2023/04/27 06:36:35;;;;;;;;;;;20.60;38.10;;;;;;4983307;28;19914;-53
2023/04/27 06:39:01;;;;;;;;;;;20.60;38.20;;;;;;4987752;28;19922;-53
2023/04/27 06:41:26;;;;;;;;;;;20.60;38.20;;;;;;4987604;28;19914;-53
2023/04/27 06:43:52;;;;;;;;;;;20.50;38.40;;;;;;4987691;28;20362;-53
2023/04/27 06:46:17;;;;;;;;;;;20.40;38.50;;;;;;4997249;28;20405;-53
2023/04/27 06:48:43;;;;;;;;;;;20.40;38.50;;;;;;4986948;28;19917;-52
2023/04/27 06:51:08;;;;;;;;;;;20.40;38.50;;;;;;4984780;28;19937;-53
2023/04/27 06:53:34;;;;;;;;;;;20.40;38.60;;;;;;4986477;28;20346;-53
2023/04/27 06:56:00;;;;;;;;;;;20.50;38.30;;;;;;4985590;28;19918;-53
2023/04/27 06:58:26;;;;;;;;;;;20.50;38.20;;;;;;4981914;28;19921;-53
2023/04/27 07:00:51;;;;;;;;;;;20.60;38.20;;;;;;4985146;28;19925;-53
2023/04/27 07:03:17;;;;;;;;;;;20.60;38.10;;;;;;4984176;28;19921;-53
2023/04/27 07:05:42;;;;;;;;;;;20.60;38.20;;;;;;5017145;28;20406;-53
2023/04/27 07:08:08;;;;;;;;;;;20.60;38.30;;;;;;4986564;28;19918;-53
2023/04/27 07:10:33;;;;;;;;;;;20.60;38.40;;;;;;4987248;28;20361;-53
2023/04/27 07:12:59;;;;;;;;;;;20.60;38.50;;;;;;4984926;28;20613;-53
2023/04/27 07:15:24;;;;;;;;;;;20.60;38.50;;;;;;4994567;28;20509;-54
2023/04/27 07:17:50;;;;;;;;;;;20.60;38.50;;;;;;4994618;28;20469;-54
2023/04/27 07:20:16;;;;;;;;;;;20.60;38.60;;;;;;4990767;28;22078;-53
2023/04/27 07:22:41;;;;;;;;;;;20.60;38.70;;;;;;4995470;28;19914;-53
2023/04/27 07:25:07;;;;;;;;;;;20.60;38.70;;;;;;4992447;28;19917;-53
2023/04/27 07:27:34;;;;;;;;;;;20.60;38.70;;;;;;4989745;28;20418;-53
2023/04/27 07:29:59;;;;;;;;;;;20.60;38.70;;;;;;4985854;28;20428;-53
2023/04/27 07:32:25;;;;;;;;;;;20.50;39.40;;;;;;4989751;28;19949;-53
2023/04/27 07:34:51;;;;;;;;;;;20.50;38.90;;;;;;4991727;28;20005;-54
2023/04/27 07:37:17;;;;;;;;;;;20.40;39.00;;;;;;5001701;28;19922;-52
2023/04/27 07:39:42;;;;;;;;;;;20.40;39.20;;;;;;4995574;28;19937;-53
2023/04/27 07:42:08;;;;;;;;;;;20.30;39.20;;;;;;4993368;28;19917;-53
2023/04/27 07:44:33;;;;;;;;;;;20.30;39.20;;;;;;4995805;28;19921;-53
2023/04/27 07:46:59;;;;;;;;;;;20.30;39.10;;;;;;4996057;28;20374;-53
2023/04/27 07:49:25;;;;;;;;;;;20.40;39.10;;;;;;4995625;28;20000;-54
2023/04/27 07:51:50;;;;;;;;;;;20.40;38.90;;;;;;5000534;28;19918;-52
2023/04/27 07:54:16;;;;;;;;;;;20.50;39.00;;;;;;4995308;28;20286;-53
2023/04/27 07:56:41;;;;;;;;;;;20.50;39.00;;;;;;4995210;28;19922;-53
2023/04/27 07:59:07;;;;;;;;;;;20.70;38.60;;;;;;5000655;28;20024;-53
2023/04/27 08:01:32;;;;;;;;;;;21.00;38.10;;;;;;4995029;28;19917;-53
2023/04/27 08:03:58;;;;;;;;;;;21.10;37.90;;;;;;4990377;28;19921;-52
2023/04/27 08:06:23;;;;;;;;;;;21.10;37.90;;;;;;4993889;28;19936;-52
2023/04/27 08:08:49;;;;;;;;;;;21.20;37.80;;;;;;4995985;28;19948;-53
2023/04/27 08:11:14;;;;;;;;;;;21.30;37.30;;;;;;4993772;28;19974;-53
2023/04/27 08:13:40;;;;;;;;;;;21.60;36.80;;;;;;4990156;28;19965;-53
2023/04/27 08:16:05;;;;;;;;;;;21.90;36.50;;;;;;4994638;28;20628;-53
2023/04/27 08:18:31;;;;;;;;;;;22.20;35.80;;;;;;5002157;28;19921;-53
2023/04/27 08:20:56;;;;;;;;;;;22.40;35.50;;;;;;4994639;28;19918;-53
2023/04/27 08:23:22;;;;;;;;;;;22.60;35.40;;;;;;4997994;28;19910;-53
2023/04/27 08:25:48;;;;;;;;;;;22.60;35.40;;;;;;5022773;28;19948;-52
2023/04/27 08:28:13;;;;;;;;;;;22.50;35.50;;;;;;5010670;28;19914;-53
2023/04/27 08:30:40;;;;;;;;;;;22.50;35.50;;;;;;4996057;28;19914;-53
2023/04/27 08:33:07;;;;;;;;;;;22.70;35.00;;;;;;5003356;28;20370;-53
2023/04/27 08:35:32;;;;;;;;;;;23.00;34.70;;;;;;4993657;28;20004;-53
2023/04/27 08:37:58;;;;;;;;;;;23.30;34.30;;;;;;4990909;28;20041;-53
2023/04/27 08:40:23;;;;;;;;;;;23.60;34.20;;;;;;4986917;28;19965;-53
2023/04/27 08:42:54;;;;;;;;;;;23.80;34.00;;;;;;4987010;28;19940;-54
2023/04/27 08:45:19;;;;;;;;;;;23.90;33.90;;;;;;4985023;28;19961;-52
2023/04/27 08:47:45;;;;;;;;;;;24.00;33.80;;;;;;4984447;28;20361;-52
2023/04/27 08:50:11;;;;;;;;;;;24.20;33.60;;;;;;4988624;28;20401;-52
2023/04/27 08:52:36;;;;;;;;;;;24.20;33.60;;;;;;4986577;28;19921;-53
2023/04/27 08:55:03;;;;;;;;;;;24.20;33.60;;;;;;4985384;28;20394;-53
2023/04/27 08:57:29;;;;;;;;;;;24.20;33.60;;;;;;4986942;28;19986;-53
2023/04/27 08:59:59;;;;;;;;;;;24.20;33.70;;;;;;4981267;28;20001;-53
2023/04/27 09:02:28;;;;;;;;;;;24.20;33.70;;;;;;4989108;28;19933;-53
2023/04/27 09:04:53;;;;;;;;;;;24.20;33.70;;;;;;4984126;28;19921;-53
2023/04/27 09:07:19;;;;;;;;;;;24.20;33.80;;;;;;4983938;28;19983;-53
2023/04/27 09:09:47;;;;;;;;;;;24.20;33.90;;;;;;4983768;28;19921;-53
2023/04/27 09:12:16;;;;;;;;;;;24.20;33.90;;;;;;4989120;28;20022;-52
2023/04/27 09:14:42;;;;;;;;;;;24.10;33.90;;;;;;5027786;28;19960;-52
2023/04/27 09:17:07;;;;;;;;;;;24.10;34.10;;;;;;4991232;28;20340;-52
2023/04/27 09:19:32;;;;;;;;;;;24.10;34.20;;;;;;5022523;28;20490;-53
2023/04/27 09:22:05;;;;;;;;;;;24.00;34.40;;;;;;4985184;28;19926;-52
2023/04/27 09:24:30;;;;;;;;;;;23.90;34.50;;;;;;4998035;28;19952;-52
2023/04/27 09:26:55;;;;;;;;;;;23.80;34.60;;;;;;5020346;28;19952;-54
2023/04/27 09:29:31;;;;;;;;;;;23.70;34.90;;;;;;5002349;28;19913;-53
2023/04/27 09:31:56;;;;;;;;;;;23.70;35.10;;;;;;4992153;28;20020;-53
2023/04/27 09:34:21;;;;;;;;;;;23.60;35.20;;;;;;5023895;28;20005;-53
2023/04/27 09:36:47;;;;;;;;;;;23.60;35.30;;;;;;4996988;28;19945;-53
2023/04/27 09:39:13;;;;;;;;;;;23.60;35.30;;;;;;5002222;28;19922;-53
2023/04/27 09:41:40;;;;;;;;;;;23.70;35.30;;;;;;5029584;28;19920;-53
2023/04/27 09:44:07;;;;;;;;;;;23.70;35.10;;;;;;4995225;28;19949;-53
2023/04/27 09:46:33;;;;;;;;;;;23.80;35.20;;;;;;4989686;28;19913;-54
2023/04/27 09:48:58;;;;;;;;;;;23.80;35.10;;;;;;4991288;28;19918;-52
2023/04/27 09:51:24;;;;;;;;;;;23.80;34.90;;;;;;4991564;28;19913;-52
2023/04/27 09:53:53;;;;;;;;;;;23.90;34.80;;;;;;4998388;28;20000;-53
2023/04/27 09:56:27;;;;;;;;;;;24.00;34.90;;;;;;5006741;28;19918;-53
2023/04/27 09:59:06;;;;;;;;;;;23.90;34.90;;;;;;4992067;28;20008;-53
2023/04/27 10:01:35;;;;;;;;;;;23.90;35.10;;;;;;4995016;28;19941;-52
2023/04/27 10:04:19;;;;;;;;;;;23.80;35.10;;;;;;4984936;28;19918;-53
2023/04/27 10:06:51;;;;;;;;;;;23.80;35.30;;;;;;4987451;28;19918;-53
2023/04/27 10:09:22;;;;;;;;;;;23.70;35.40;;;;;;4988829;28;19946;-53
2023/04/27 10:11:48;;;;;;;;;;;23.70;35.40;;;;;;4991314;28;19961;-53
2023/04/27 10:14:20;;;;;;;;;;;23.70;35.70;;;;;;4987187;28;20394;-54
2023/04/27 10:16:46;;;;;;;;;;;23.70;35.70;;;;;;4987336;28;19918;-53
2023/04/27 10:19:12;;;;;;;;;;;23.70;35.60;;;;;;4989849;28;19928;-53
2023/04/27 10:21:38;;;;;;;;;;;23.70;35.50;;;;;;4982692;28;19929;-54
2023/04/27 10:24:07;;;;;;;;;;;23.70;35.40;;;;;;4988259;28;19972;-54
2023/04/27 10:26:32;;;;;;;;;;;23.80;35.40;;;;;;4987935;28;20428;-52
2023/04/27 10:29:07;;;;;;;;;;;23.80;35.20;;;;;;4990027;28;19926;-52
2023/04/27 10:31:33;;;;;;;;;;;23.80;35.20;;;;;;4992011;28;19917;-53
2023/04/27 10:34:07;;;;;;;;;;;23.90;35.30;;;;;;4989638;28;19960;-53
2023/04/27 10:36:33;;;;;;;;;;;23.90;35.50;;;;;;4992506;28;19921;-53
2023/04/27 10:38:59;;;;;;;;;;;23.90;35.40;;;;;;4988436;28;19996;-53
2023/04/27 10:41:32;;;;;;;;;;;24.00;35.50;;;;;;4991488;28;20013;-53
2023/04/27 10:43:57;;;;;;;;;;;24.00;35.30;;;;;;4990870;28;19918;-53
2023/04/27 10:46:23;;;;;;;;;;;24.00;35.30;;;;;;5018627;28;19924;-53
2023/04/27 10:48:48;;;;;;;;;;;23.80;35.40;;;;;;4983378;28;19945;-53
2023/04/27 10:51:14;;;;;;;;;;;23.70;35.70;;;;;;4991474;28;19914;-51
2023/04/27 10:53:39;;;;;;;;;;;23.70;35.80;;;;;;5000308;28;19913;-52
2023/04/27 10:56:05;;;;;;;;;;;23.70;35.90;;;;;;4983746;28;20035;-54
2023/04/27 10:58:31;;;;;;;;;;;23.70;35.80;;;;;;4988186;28;20337;-53
2023/04/27 11:00:57;;;;;;;;;;;23.80;35.80;;;;;;4989857;28;20346;-54
2023/04/27 11:03:22;;;;;;;;;;;23.80;35.80;;;;;;4991492;28;20004;-52
2023/04/27 11:05:48;;;;;;;;;;;23.90;36.00;;;;;;4987339;28;19918;-54
2023/04/27 11:08:14;;;;;;;;;;;23.90;35.60;;;;;;4983233;28;19913;-53
2023/04/27 11:10:44;;;;;;;;;;;23.90;35.50;;;;;;4993820;28;19944;-53
2023/04/27 11:13:13;;;;;;;;;;;24.00;35.60;;;;;;4986698;28;19924;-53
2023/04/27 11:15:43;;;;;;;;;;;23.90;35.50;;;;;;4981372;28;19918;-53
2023/04/27 11:18:09;;;;;;;;;;;23.80;35.70;;;;;;4987144;28;19936;-54
2023/04/27 11:20:35;;;;;;;;;;;23.80;35.70;;;;;;4996929;28;19913;-53
2023/04/27 11:23:00;;;;;;;;;;;23.80;35.60;;;;;;4996444;28;19921;-54
2023/04/27 11:25:26;;;;;;;;;;;23.80;35.80;;;;;;4993799;28;20370;-53
2023/04/27 11:27:52;;;;;;;;;;;23.90;35.80;;;;;;4994845;28;19922;-54
2023/04/27 11:30:17;;;;;;;;;;;23.90;35.70;;;;;;4999171;28;19963;-53
2023/04/27 11:32:43;;;;;;;;;;;23.90;35.80;;;;;;5003875;28;19956;-53
2023/04/27 11:35:09;;;;;;;;;;;23.90;35.60;;;;;;4999379;28;19914;-54
2023/04/27 11:37:35;;;;;;;;;;;23.90;35.70;;;;;;4990722;28;20362;-53
2023/04/27 11:40:00;;;;;;;;;;;24.00;35.90;;;;;;4994652;28;19918;-53
2023/04/27 11:42:30;;;;;;;;;;;24.00;35.90;;;;;;5001230;28;19924;-53
2023/04/27 11:44:55;;;;;;;;;;;23.90;35.90;;;;;;4993544;28;19921;-52
2023/04/27 11:47:21;;;;;;;;;;;23.90;35.90;;;;;;4998724;28;19918;-52
2023/04/27 11:49:47;;;;;;;;;;;23.90;36.10;;;;;;5004728;28;19914;-53
2023/04/27 11:52:13;;;;;;;;;;;23.90;36.20;;;;;;4999070;28;19924;-54
2023/04/27 11:54:38;;;;;;;;;;;23.80;36.20;;;;;;5000479;28;19921;-53
2023/04/27 11:57:04;;;;;;;;;;;23.80;36.20;;;;;;4998093;28;19913;-53
2023/04/27 11:59:30;;;;;;;;;;;23.80;36.60;;;;;;5000038;28;19918;-53
2023/04/27 12:01:55;;;;;;;;;;;23.70;36.50;;;;;;4986508;28;19927;-54
2023/04/27 12:04:21;;;;;;;;;;;23.70;36.60;;;;;;5000475;28;19920;-53
2023/04/27 12:06:46;;;;;;;;;;;23.60;36.70;;;;;;4988813;28;19920;-54
2023/04/27 12:09:12;;;;;;;;;;;23.50;36.80;;;;;;4997131;28;19941;-54
2023/04/27 12:11:37;;;;;;;;;;;23.50;37.00;;;;;;5002449;28;19921;-54
2023/04/27 12:14:03;;;;;;;;;;;23.50;37.10;;;;;;4994260;28;19932;-53
2023/04/27 12:16:28;;;;;;;;;;;23.50;37.10;;;;;;4999669;28;19925;-54
2023/04/27 12:18:53;;;;;;;;;;;23.50;37.10;;;;;;5001184;28;19918;-53
2023/04/27 12:21:20;;;;;;;;;;;23.50;37.10;;;;;;4999147;28;19918;-53
2023/04/27 12:23:45;;;;;;;;;;;23.60;37.10;;;;;;4992206;28;20277;-53
2023/04/27 12:26:11;;;;;;;;;;;23.80;36.60;;;;;;4995863;28;19914;-54
2023/04/27 12:28:36;;;;;;;;;;;24.00;36.70;;;;;;4992999;28;20012;-53
2023/04/27 12:31:02;;;;;;;;;;;24.10;36.30;;;;;;4998459;28;20040;-53
2023/04/27 12:33:28;;;;;;;;;;;24.20;36.10;;;;;;4995388;28;19922;-52
2023/04/27 12:35:53;;;;;;;;;;;24.30;36.20;;;;;;4987078;28;19981;-53
2023/04/27 12:38:19;;;;;;;;;;;24.20;36.00;;;;;;4990683;28;19918;-54
2023/04/27 12:40:44;;;;;;;;;;;24.20;36.10;;;;;;5002047;28;20358;-52
2023/04/27 12:43:11;;;;;;;;;;;24.10;36.30;;;;;;5001463;28;19913;-53
2023/04/27 12:45:37;;;;;;;;;;;24.00;36.30;;;;;;4996711;28;19926;-54
2023/04/27 12:48:02;;;;;;;;;;;23.90;36.70;;;;;;4993894;28;19914;-53
2023/04/27 12:50:27;;;;;;;;;;;23.80;36.60;;;;;;4996356;28;19924;-52
2023/04/27 12:52:53;;;;;;;;;;;23.70;36.90;;;;;;4992023;28;19918;-53
2023/04/27 12:55:18;;;;;;;;;;;23.70;36.90;;;;;;4988661;28;20009;-53
2023/04/27 12:57:44;;;;;;;;;;;23.60;37.00;;;;;;5001423;28;20020;-53
2023/04/27 13:00:10;;;;;;;;;;;23.60;37.10;;;;;;4989516;28;19914;-53
2023/04/27 13:02:35;;;;;;;;;;;23.60;37.20;;;;;;4991229;28;19913;-53
2023/04/27 13:05:02;;;;;;;;;;;23.70;37.20;;;;;;4994997;28;19918;-53
2023/04/27 13:07:28;;;;;;;;;;;23.70;37.00;;;;;;5005347;28;20760;-55
2023/04/27 13:09:53;;;;;;;;;;;23.70;37.20;;;;;;4989438;28;20005;-53
2023/04/27 13:12:19;;;;;;;;;;;23.60;37.30;;;;;;4991553;28;19974;-55
2023/04/27 13:14:45;;;;;;;;;;;23.60;37.40;;;;;;4991737;28;19914;-54
2023/04/27 13:17:11;;;;;;;;;;;23.70;37.40;;;;;;4988784;28;19925;-55
2023/04/27 13:19:36;;;;;;;;;;;23.60;37.40;;;;;;4989893;28;19914;-53
2023/04/27 13:22:02;;;;;;;;;;;23.50;37.40;;;;;;4991703;28;19914;-53
2023/04/27 13:24:28;;;;;;;;;;;23.50;37.60;;;;;;4997955;28;19922;-55
2023/04/27 13:26:53;;;;;;;;;;;23.50;37.60;;;;;;4996323;28;19925;-54
2023/04/27 13:29:19;;;;;;;;;;;23.60;37.60;;;;;;4998377;28;19917;-54
2023/04/27 13:31:45;;;;;;;;;;;23.70;37.20;;;;;;4991625;28;19922;-54
2023/04/27 13:34:10;;;;;;;;;;;24.00;36.80;;;;;;4991273;28;19921;-54
2023/04/27 13:36:36;;;;;;;;;;;24.10;36.70;;;;;;4994863;28;19914;-53
2023/04/27 13:39:02;;;;;;;;;;;24.30;36.40;;;;;;4990725;28;20076;-54
2023/04/27 13:41:28;;;;;;;;;;;24.40;36.90;;;;;;4991332;28;19921;-54
2023/04/27 13:43:53;;;;;;;;;;;24.40;36.20;;;;;;5005031;28;19918;-54
2023/04/27 13:46:19;;;;;;;;;;;24.40;36.40;;;;;;4991786;28;20286;-55
2023/04/27 13:48:44;;;;;;;;;;;24.30;36.50;;;;;;5002736;28;19920;-54
2023/04/27 13:51:09;;;;;;;;;;;24.20;36.70;;;;;;4991867;28;19918;-53
2023/04/27 13:53:35;;;;;;;;;;;24.00;36.80;;;;;;4992373;28;19925;-54
2023/04/27 13:56:00;;;;;;;;;;;23.90;37.10;;;;;;4987335;28;20036;-54
2023/04/27 13:58:26;;;;;;;;;;;23.80;37.30;;;;;;4982671;28;19928;-53
2023/04/27 14:00:52;;;;;;;;;;;23.70;37.50;;;;;;4994857;28;19920;-54
2023/04/27 14:03:17;;;;;;;;;;;23.60;37.70;;;;;;4986174;28;19928;-53
2023/04/27 14:05:43;;;;;;;;;;;23.50;37.90;;;;;;4991895;28;19961;-54
2023/04/27 14:08:09;;;;;;;;;;;23.50;38.10;;;;;;4994548;28;19918;-54